Time;durP1;ratioP1;P1;durP2;ratioP2;P2;SDS_P1;SDS_P2;PMS_P1;PMS_P2;Temp;Humidity;BMP_temperature;BMP_pressure;BME280_temperature;BME280_humidity;BME280_pressure;Samples;Min_cycle;Max_cycle;Signal;HPM_P1;HPM_P2
2024/01/25 00:04:30;;;;;;;14.38;3.60;;;;;;;;;;10130776;29;20252;-75
2024/01/25 00:09:33;;;;;;;19.92;5.28;;;;;;;;;;10131024;29;20063;-75
2024/01/25 00:14:37;;;;;;;16.83;4.80;;;;;;;;;;10127935;29;20100;-75
2024/01/25 00:19:42;;;;;;;20.25;4.82;;;;;;;;;;10126599;29;20158;-75
2024/01/25 00:24:45;;;;;;;19.33;5.45;;;;;;;;;;10130520;29;20061;-75
2024/01/25 00:29:49;;;;;;;19.15;5.65;;;;;;;;;;10127335;29;20068;-75
2024/01/25 00:34:54;;;;;;;15.98;4.40;;;;;;;;;;10127706;29;20037;-75
2024/01/25 00:39:58;;;;;;;17.70;3.87;;;;;;;;;;10123125;29;20048;-75
2024/01/25 00:45:02;;;;;;;12.52;3.83;;;;;;;;;;10125766;29;20142;-74
2024/01/25 00:50:08;;;;;;;24.20;5.15;;;;;;;;;;10130712;29;20060;-75
2024/01/25 00:55:12;;;;;;;14.25;3.92;;;;;;;;;;10124062;29;20063;-75
2024/01/25 01:00:17;;;;;;;11.95;3.55;;;;;;;;;;10124115;29;20067;-75
2024/01/25 01:05:23;;;;;;;19.30;4.80;;;;;;;;;;10118750;29;20052;-75
2024/01/25 01:10:26;;;;;;;16.85;4.40;;;;;;;;;;10133766;29;20060;-75
2024/01/25 01:15:30;;;;;;;10.50;3.33;;;;;;;;;;10119576;29;20244;-75
2024/01/25 01:20:34;;;;;;;21.17;4.82;;;;;;;;;;10125482;29;20101;-75
2024/01/25 01:25:38;;;;;;;21.10;4.20;;;;;;;;;;10125223;29;20116;-75
2024/01/25 01:30:41;;;;;;;14.18;4.22;;;;;;;;;;10117819;29;20077;-75
2024/01/25 01:35:46;;;;;;;12.52;3.65;;;;;;;;;;10125603;29;20056;-75
2024/01/25 01:40:50;;;;;;;14.05;3.58;;;;;;;;;;10122947;29;20105;-75
2024/01/25 01:45:54;;;;;;;19.80;4.38;;;;;;;;;;10121448;29;20513;-75
2024/01/25 01:50:59;;;;;;;22.40;5.15;;;;;;;;;;10123120;29;20090;-75
2024/01/25 01:56:03;;;;;;;16.97;4.93;;;;;;;;;;10127020;29;20051;-75
2024/01/25 02:01:07;;;;;;;19.52;4.75;;;;;;;;;;10132168;29;20147;-75
2024/01/25 02:06:11;;;;;;;13.00;3.78;;;;;;;;;;10129599;29;20052;-75
2024/01/25 02:11:15;;;;;;;13.55;3.20;;;;;;;;;;10119118;29;20064;-75
2024/01/25 02:16:19;;;;;;;14.57;3.63;;;;;;;;;;10126412;29;20132;-75
2024/01/25 02:21:24;;;;;;;18.80;4.72;;;;;;;;;;10123988;29;20048;-75
2024/01/25 02:26:29;;;;;;;12.27;3.50;;;;;;;;;;10123954;29;20409;-75
2024/01/25 02:31:32;;;;;;;16.02;4.25;;;;;;;;;;10129248;29;20052;-75
2024/01/25 02:36:36;;;;;;;10.38;3.30;;;;;;;;;;10122763;29;20064;-75
2024/01/25 02:41:40;;;;;;;12.85;3.38;;;;;;;;;;10113843;29;20049;-75
2024/01/25 02:46:46;;;;;;;14.05;3.72;;;;;;;;;;10119218;29;20057;-75
2024/01/25 02:51:49;;;;;;;10.45;2.85;;;;;;;;;;10123064;29;20095;-75
2024/01/25 02:56:54;;;;;;;18.50;4.38;;;;;;;;;;10116340;29;20041;-75
2024/01/25 03:01:58;;;;;;;11.68;3.97;;;;;;;;;;10115989;29;20076;-75
2024/01/25 03:07:02;;;;;;;15.32;3.83;;;;;;;;;;10123391;29;20072;-75
2024/01/25 03:12:07;;;;;;;19.67;4.57;;;;;;;;;;10123797;29;20056;-75
2024/01/25 03:17:12;;;;;;;17.77;4.07;;;;;;;;;;10119765;29;20109;-75
2024/01/25 03:22:15;;;;;;;19.85;4.90;;;;;;;;;;10120760;29;20126;-75
2024/01/25 03:27:20;;;;;;;16.48;4.13;;;;;;;;;;10122388;29;20049;-75
2024/01/25 03:32:24;;;;;;;12.07;3.30;;;;;;;;;;10121444;29;20112;-75
2024/01/25 03:37:27;;;;;;;12.98;3.33;;;;;;;;;;10117147;29;20973;-75
2024/01/25 03:42:32;;;;;;;8.73;2.95;;;;;;;;;;10116871;29;20548;-75
2024/01/25 03:47:35;;;;;;;14.85;3.78;;;;;;;;;;10111966;29;20046;-75
2024/01/25 03:52:39;;;;;;;9.55;2.80;;;;;;;;;;10133376;29;20448;-75
2024/01/25 03:57:43;;;;;;;10.57;2.72;;;;;;;;;;10121949;29;20501;-74
2024/01/25 04:02:47;;;;;;;7.05;2.13;;;;;;;;;;10119375;29;20548;-74
2024/01/25 04:07:50;;;;;;;16.38;4.00;;;;;;;;;;10116379;29;20807;-75
2024/01/25 04:12:55;;;;;;;13.98;3.65;;;;;;;;;;10117000;29;20053;-74
2024/01/25 04:17:58;;;;;;;14.10;4.80;;;;;;;;;;10119002;29;20516;-74
2024/01/25 04:23:02;;;;;;;15.35;5.90;;;;;;;;;;10119380;29;20064;-75
2024/01/25 04:28:07;;;;;;;10.55;4.30;;;;;;;;;;10126377;29;20067;-75
2024/01/25 04:33:11;;;;;;;17.60;5.65;;;;;;;;;;10122560;29;20052;-75
2024/01/25 04:38:15;;;;;;;14.40;4.38;;;;;;;;;;10127950;29;20080;-75
2024/01/25 04:43:19;;;;;;;12.27;4.05;;;;;;;;;;10129967;29;20052;-75
2024/01/25 04:48:23;;;;;;;14.15;4.50;;;;;;;;;;10135512;29;20821;-74
2024/01/25 04:53:26;;;;;;;12.20;4.07;;;;;;;;;;10128401;29;20048;-74
2024/01/25 04:58:31;;;;;;;14.82;4.45;;;;;;;;;;10123375;29;20128;-74
2024/01/25 05:03:35;;;;;;;11.27;3.00;;;;;;;;;;10125048;29;20156;-74
2024/01/25 05:08:38;;;;;;;9.40;3.15;;;;;;;;;;10146929;23;20114;-74
2024/01/25 05:13:43;;;;;;;11.50;3.60;;;;;;;;;;10187948;28;20079;-74
2024/01/25 05:18:46;;;;;;;12.65;4.32;;;;;;;;;;10178753;29;20140;-74
2024/01/25 05:23:50;;;;;;;12.05;4.20;;;;;;;;;;10158648;29;20055;-74
2024/01/25 05:28:55;;;;;;;7.70;3.42;;;;;;;;;;10161727;29;20119;-74
2024/01/25 05:33:58;;;;;;;7.72;2.95;;;;;;;;;;10159283;29;20041;-74
2024/01/25 05:39:06;;;;;;;9.80;3.05;;;;;;;;;;10161415;29;20068;-74
2024/01/25 05:44:11;;;;;;;11.55;2.45;;;;;;;;;;10160482;29;20068;-74
2024/01/25 05:49:14;;;;;;;10.40;2.47;;;;;;;;;;10159415;29;20051;-74
2024/01/25 05:54:17;;;;;;;7.03;2.20;;;;;;;;;;10155811;29;20615;-74
2024/01/25 05:59:22;;;;;;;13.23;3.97;;;;;;;;;;10154601;29;20060;-74
2024/01/25 06:04:25;;;;;;;14.38;3.72;;;;;;;;;;10157789;29;20064;-74
2024/01/25 06:09:29;;;;;;;9.95;2.83;;;;;;;;;;10157640;29;20050;-74
2024/01/25 06:14:34;;;;;;;9.32;3.33;;;;;;;;;;10160179;29;20052;-74
2024/01/25 06:19:37;;;;;;;9.50;2.85;;;;;;;;;;10158077;29;20103;-74
2024/01/25 06:24:41;;;;;;;8.13;2.60;;;;;;;;;;10156144;29;20047;-74
2024/01/25 06:29:45;;;;;;;9.57;3.05;;;;;;;;;;10154032;29;20052;-74
2024/01/25 06:34:49;;;;;;;6.30;2.25;;;;;;;;;;10160836;29;20111;-74
2024/01/25 06:39:52;;;;;;;5.22;1.88;;;;;;;;;;10160546;29;20051;-74
2024/01/25 06:44:57;;;;;;;8.10;2.40;;;;;;;;;;10156084;29;20051;-74
2024/01/25 06:50:00;;;;;;;10.63;2.97;;;;;;;;;;10154372;29;20113;-74
2024/01/25 06:55:04;;;;;;;6.35;2.53;;;;;;;;;;10155591;29;20084;-74
2024/01/25 07:00:12;;;;;;;6.15;2.42;;;;;;;;;;10155625;29;20051;-74
2024/01/25 07:05:16;;;;;;;8.65;2.45;;;;;;;;;;10153240;29;20099;-74
2024/01/25 07:10:20;;;;;;;11.85;2.60;;;;;;;;;;10155807;29;20415;-74
2024/01/25 07:15:25;;;;;;;9.63;2.45;;;;;;;;;;10160144;29;20056;-74
2024/01/25 07:20:28;;;;;;;7.93;2.58;;;;;;;;;;10157693;29;20056;-74
2024/01/25 07:25:31;;;;;;;11.15;3.65;;;;;;;;;;10155699;29;20065;-74
2024/01/25 07:30:36;;;;;;;9.68;2.95;;;;;;;;;;10161371;29;20052;-74
2024/01/25 07:35:45;;;;;;;9.18;2.92;;;;;;;;;;10156219;29;20084;-74
2024/01/25 07:40:48;;;;;;;6.68;2.15;;;;;;;;;;10155293;29;20074;-74
2024/01/25 07:45:53;;;;;;;7.78;2.85;;;;;;;;;;10153131;29;20100;-74
2024/01/25 07:50:56;;;;;;;9.40;2.85;;;;;;;;;;10159092;29;20423;-74
2024/01/25 07:56:00;;;;;;;8.70;2.47;;;;;;;;;;10158663;29;20205;-74
2024/01/25 08:01:06;;;;;;;10.18;3.33;;;;;;;;;;10157660;29;20147;-74
2024/01/25 08:06:09;;;;;;;9.57;2.22;;;;;;;;;;10164804;29;20052;-74
2024/01/25 08:11:13;;;;;;;9.57;2.75;;;;;;;;;;10164268;29;20048;-74
2024/01/25 08:16:19;;;;;;;8.48;3.22;;;;;;;;;;10163546;29;20059;-74
2024/01/25 08:21:22;;;;;;;6.80;2.88;;;;;;;;;;10164850;29;20472;-74
2024/01/25 08:26:26;;;;;;;12.45;3.67;;;;;;;;;;10158417;29;20136;-74
2024/01/25 08:31:30;;;;;;;9.27;3.00;;;;;;;;;;10159309;29;20040;-74
2024/01/25 08:36:34;;;;;;;12.80;3.53;;;;;;;;;;10159075;29;20044;-74
2024/01/25 08:41:38;;;;;;;8.15;2.65;;;;;;;;;;10162564;29;20055;-74
2024/01/25 08:46:43;;;;;;;12.23;4.00;;;;;;;;;;10157869;29;20048;-74
2024/01/25 08:51:47;;;;;;;12.38;4.65;;;;;;;;;;10161062;29;20579;-74
2024/01/25 08:56:51;;;;;;;8.85;3.17;;;;;;;;;;10164512;29;20048;-74
2024/01/25 09:01:55;;;;;;;23.05;5.75;;;;;;;;;;10163759;29;20156;-74
2024/01/25 09:06:59;;;;;;;15.32;4.20;;;;;;;;;;10161814;29;20052;-74
2024/01/25 09:12:02;;;;;;;16.27;4.30;;;;;;;;;;10161002;29;20393;-74
2024/01/25 09:17:08;;;;;;;15.70;4.28;;;;;;;;;;10156965;29;20060;-74
2024/01/25 09:22:11;;;;;;;12.07;3.50;;;;;;;;;;10162959;29;20435;-74
2024/01/25 09:27:15;;;;;;;19.95;5.05;;;;;;;;;;10159060;29;20143;-74
2024/01/25 09:32:21;;;;;;;26.17;4.68;;;;;;;;;;10155983;29;20055;-74
2024/01/25 09:37:24;;;;;;;13.23;4.13;;;;;;;;;;10158424;29;20048;-74
2024/01/25 09:42:27;;;;;;;14.50;3.72;;;;;;;;;;10152316;29;20170;-74
2024/01/25 09:47:32;;;;;;;15.27;4.07;;;;;;;;;;10161844;29;20135;-74
2024/01/25 09:52:36;;;;;;;14.77;4.60;;;;;;;;;;10156873;29;20291;-74
2024/01/25 09:57:42;;;;;;;19.45;5.05;;;;;;;;;;10160685;29;20067;-75
2024/01/25 10:02:48;;;;;;;22.65;5.55;;;;;;;;;;10155545;29;20055;-74
2024/01/25 10:07:51;;;;;;;15.00;4.50;;;;;;;;;;10155306;29;20048;-75
2024/01/25 10:12:57;;;;;;;17.65;4.25;;;;;;;;;;10155883;29;20070;-74
2024/01/25 10:18:01;;;;;;;21.58;5.82;;;;;;;;;;10152432;29;20393;-74
2024/01/25 10:23:08;;;;;;;21.13;4.95;;;;;;;;;;10159949;29;20056;-74
2024/01/25 10:28:12;;;;;;;19.88;5.70;;;;;;;;;;10158647;29;20127;-75
2024/01/25 10:33:18;;;;;;;18.98;5.00;;;;;;;;;;10157808;29;20150;-74
2024/01/25 10:38:22;;;;;;;19.83;6.03;;;;;;;;;;10154146;29;20130;-74
2024/01/25 10:43:25;;;;;;;19.52;5.40;;;;;;;;;;10159803;29;20297;-74
2024/01/25 10:48:31;;;;;;;25.67;6.07;;;;;;;;;;10158274;29;20067;-75
2024/01/25 10:53:35;;;;;;;;;;;;;;;;;;10159620;29;20119;-74
2024/01/25 10:58:42;;;;;;;12.88;4.32;;;;;;;;;;10156161;29;19938;-74
2024/01/25 11:03:48;;;;;;;17.27;4.20;;;;;;;;;;10156538;29;20048;-74
2024/01/25 11:08:52;;;;;;;18.80;5.18;;;;;;;;;;10176017;23;20135;-75
2024/01/25 11:13:57;;;;;;;18.40;5.30;;;;;;;;;;10183651;28;20591;-75
2024/01/25 11:19:05;;;;;;;16.63;4.85;;;;;;;;;;10162009;29;20118;-75
2024/01/25 11:24:14;;;;;;;14.13;4.40;;;;;;;;;;10154575;29;20060;-75
2024/01/25 11:29:20;;;;;;;20.13;5.25;;;;;;;;;;10154663;29;20048;-75
2024/01/25 11:34:25;;;;;;;19.67;4.13;;;;;;;;;;10154846;29;20538;-75
2024/01/25 11:39:29;;;;;;;20.63;4.72;;;;;;;;;;10159657;29;20052;-75
2024/01/25 11:44:32;;;;;;;16.58;4.30;;;;;;;;;;10163278;29;20099;-75
2024/01/25 11:49:37;;;;;;;15.73;4.55;;;;;;;;;;10162866;29;20508;-75
2024/01/25 11:54:41;;;;;;;14.13;3.67;;;;;;;;;;10164809;29;20044;-74
2024/01/25 11:59:45;;;;;;;16.38;4.47;;;;;;;;;;10158382;29;20056;-74
2024/01/25 12:04:53;;;;;;;12.85;3.80;;;;;;;;;;10157228;29;20059;-75
2024/01/25 12:10:03;;;;;;;14.93;3.95;;;;;;;;;;10156364;29;20060;-75
2024/01/25 12:15:08;;;;;;;15.02;3.67;;;;;;;;;;10162349;29;20052;-75
2024/01/25 12:20:13;;;;;;;11.73;3.20;;;;;;;;;;10162766;29;20126;-75
2024/01/25 12:25:16;;;;;;;9.98;2.47;;;;;;;;;;10164142;29;20693;-74
2024/01/25 12:30:20;;;;;;;15.40;4.07;;;;;;;;;;10162108;29;20040;-75
2024/01/25 12:35:25;;;;;;;18.40;4.35;;;;;;;;;;10163508;29;20071;-75
2024/01/25 12:40:28;;;;;;;11.38;2.80;;;;;;;;;;10164195;29;20240;-74
2024/01/25 12:45:31;;;;;;;21.77;5.35;;;;;;;;;;10169113;29;20059;-74
2024/01/25 12:50:37;;;;;;;19.10;4.47;;;;;;;;;;10161699;29;20056;-74
2024/01/25 12:55:40;;;;;;;13.07;3.90;;;;;;;;;;10162665;29;20143;-74
2024/01/25 13:00:45;;;;;;;16.02;4.80;;;;;;;;;;10162484;29;20051;-74
2024/01/25 13:05:50;;;;;;;10.98;3.60;;;;;;;;;;10162107;29;20063;-74
2024/01/25 13:10:53;;;;;;;7.53;2.50;;;;;;;;;;10160845;29;20419;-74
2024/01/25 13:15:56;;;;;;;10.60;3.10;;;;;;;;;;10165381;29;20405;-74
2024/01/25 13:21:02;;;;;;;9.65;2.38;;;;;;;;;;10162267;29;20064;-75
2024/01/25 13:26:05;;;;;;;20.83;4.38;;;;;;;;;;10162152;29;20125;-74
2024/01/25 13:31:09;;;;;;;16.38;4.25;;;;;;;;;;10159040;29;20056;-75
2024/01/25 13:36:14;;;;;;;15.88;4.28;;;;;;;;;;10160146;29;20067;-74
2024/01/25 13:41:17;;;;;;;10.45;3.17;;;;;;;;;;10160348;29;20060;-74
2024/01/25 13:46:21;;;;;;;9.48;3.17;;;;;;;;;;10159428;29;20052;-74
2024/01/25 13:51:26;;;;;;;17.05;4.95;;;;;;;;;;10158559;29;20055;-74
2024/01/25 13:56:29;;;;;;;7.57;2.90;;;;;;;;;;10158686;29;20100;-74
2024/01/25 14:01:33;;;;;;;8.10;2.08;;;;;;;;;;10159242;29;20076;-74
2024/01/25 14:06:38;;;;;;;6.97;2.17;;;;;;;;;;10155788;29;20763;-75
2024/01/25 14:11:41;;;;;;;11.38;3.33;;;;;;;;;;10159378;29;20523;-74
2024/01/25 14:16:44;;;;;;;10.35;3.00;;;;;;;;;;10156116;29;20100;-74
2024/01/25 14:21:50;;;;;;;4.28;2.08;;;;;;;;;;10159920;29;20048;-74
2024/01/25 14:26:59;;;;;;;7.18;2.25;;;;;;;;;;10159974;29;20440;-74
2024/01/25 14:32:03;;;;;;;13.00;3.05;;;;;;;;;;10157868;29;20525;-74
2024/01/25 14:37:08;;;;;;;11.00;2.75;;;;;;;;;;10159407;29;20136;-74
2024/01/25 14:42:11;;;;;;;9.30;2.95;;;;;;;;;;10152034;29;20139;-75
2024/01/25 14:47:20;;;;;;;11.40;3.22;;;;;;;;;;10153048;29;20535;-74
2024/01/25 14:52:24;;;;;;;15.02;3.65;;;;;;;;;;10158475;29;20076;-74
2024/01/25 14:57:28;;;;;;;9.18;3.08;;;;;;;;;;10157907;29;20051;-75
2024/01/25 15:02:33;;;;;;;12.73;3.55;;;;;;;;;;10158364;29;20048;-75
2024/01/25 15:07:39;;;;;;;8.88;2.33;;;;;;;;;;10157652;29;20044;-75
2024/01/25 15:12:42;;;;;;;8.15;2.30;;;;;;;;;;10157942;29;20223;-74
2024/01/25 15:17:46;;;;;;;8.82;2.45;;;;;;;;;;10153409;29;20072;-75
2024/01/25 15:22:51;;;;;;;9.30;2.58;;;;;;;;;;10153628;29;20048;-75
2024/01/25 15:27:54;;;;;;;6.40;1.92;;;;;;;;;;10155424;29;20144;-75
2024/01/25 15:32:59;;;;;;;6.70;1.85;;;;;;;;;;10152934;29;20096;-75
2024/01/25 15:38:07;;;;;;;3.70;1.60;;;;;;;;;;10155015;29;20060;-75
2024/01/25 15:43:10;;;;;;;4.60;1.40;;;;;;;;;;10154713;29;20071;-75
2024/01/25 15:48:14;;;;;;;10.38;2.85;;;;;;;;;;10154787;29;20115;-75
2024/01/25 15:53:18;;;;;;;6.65;2.47;;;;;;;;;;10156923;29;20048;-75
2024/01/25 15:58:22;;;;;;;8.10;2.15;;;;;;;;;;10153387;29;20143;-75
2024/01/25 16:03:25;;;;;;;5.05;1.77;;;;;;;;;;10155156;29;20127;-75
2024/01/25 16:08:30;;;;;;;8.10;2.83;;;;;;;;;;10155202;29;20063;-75
2024/01/25 16:13:34;;;;;;;8.47;2.93;;;;;;;;;;10152796;29;20052;-75
2024/01/25 16:18:37;;;;;;;7.45;2.67;;;;;;;;;;10153443;29;20051;-75
2024/01/25 16:23:42;;;;;;;10.05;3.50;;;;;;;;;;10169195;29;20044;-75
2024/01/25 16:28:45;;;;;;;8.05;3.10;;;;;;;;;;10157588;29;20740;-75
2024/01/25 16:33:49;;;;;;;7.72;2.80;;;;;;;;;;10161411;29;20111;-75
2024/01/25 16:38:53;;;;;;;11.60;3.60;;;;;;;;;;10161859;29;20517;-75
2024/01/25 16:43:57;;;;;;;8.90;3.30;;;;;;;;;;10161441;29;20044;-77
2024/01/25 16:49:00;;;;;;;8.18;3.13;;;;;;;;;;10162808;29;20127;-75
2024/01/25 16:54:05;;;;;;;18.70;4.18;;;;;;;;;;10162691;29;20056;-75
2024/01/25 16:59:09;;;;;;;20.35;3.92;;;;;;;;;;10162414;29;20104;-75
2024/01/25 17:04:12;;;;;;;14.82;3.47;;;;;;;;;;10160535;29;20853;-75
2024/01/25 17:09:17;;;;;;;8.02;2.70;;;;;;;;;;10174053;23;20055;-75
2024/01/25 17:14:21;;;;;;;5.25;2.08;;;;;;;;;;10123156;29;20425;-74
2024/01/25 17:19:24;;;;;;;6.35;2.00;;;;;;;;;;10118378;29;20049;-75
2024/01/25 17:24:29;;;;;;;5.00;1.90;;;;;;;;;;10124145;29;20044;-75
2024/01/25 17:29:32;;;;;;;8.25;2.50;;;;;;;;;;10120112;29;20090;-75
2024/01/25 17:34:37;;;;;;;7.28;2.15;;;;;;;;;;10119781;29;20060;-75
2024/01/25 17:39:45;;;;;;;6.32;2.00;;;;;;;;;;10122462;29;20140;-75
2024/01/25 17:44:48;;;;;;;6.00;2.25;;;;;;;;;;10120203;29;20068;-75
2024/01/25 17:49:54;;;;;;;5.72;2.70;;;;;;;;;;10122692;29;20149;-75
2024/01/25 17:54:59;;;;;;;7.07;2.90;;;;;;;;;;10119797;29;20092;-75
2024/01/25 18:00:02;;;;;;;6.10;2.88;;;;;;;;;;10120127;29;20060;-75
2024/01/25 18:05:08;;;;;;;6.68;2.20;;;;;;;;;;10119354;29;20052;-75
2024/01/25 18:10:13;;;;;;;9.07;2.55;;;;;;;;;;10118810;29;20067;-75
2024/01/25 18:15:18;;;;;;;8.27;2.87;;;;;;;;;;10118643;29;20065;-74
2024/01/25 18:20:24;;;;;;;9.75;3.55;;;;;;;;;;10120839;29;20052;-75
2024/01/25 18:25:31;;;;;;;8.10;3.17;;;;;;;;;;10119396;29;20055;-74
2024/01/25 18:30:35;;;;;;;8.25;2.95;;;;;;;;;;10118713;29;20044;-75
2024/01/25 18:35:40;;;;;;;11.40;3.85;;;;;;;;;;10119708;29;20063;-75
2024/01/25 18:40:45;;;;;;;6.25;2.97;;;;;;;;;;10116745;29;20499;-74
2024/01/25 18:45:48;;;;;;;10.77;3.25;;;;;;;;;;10118455;29;20489;-75
2024/01/25 18:50:52;;;;;;;10.13;2.92;;;;;;;;;;10111885;29;20051;-75
2024/01/25 18:55:57;;;;;;;7.60;2.10;;;;;;;;;;10120254;29;20056;-75
2024/01/25 19:01:03;;;;;;;5.13;2.60;;;;;;;;;;10112251;29;20056;-74
2024/01/25 19:06:07;;;;;;;4.65;2.00;;;;;;;;;;10116115;29;20441;-75
2024/01/25 19:11:12;;;;;;;6.30;1.85;;;;;;;;;;10114441;29;20052;-75
2024/01/25 19:16:16;;;;;;;3.10;1.65;;;;;;;;;;10114830;29;20575;-74
2024/01/25 19:21:19;;;;;;;7.00;2.60;;;;;;;;;;10104158;29;20132;-75
2024/01/25 19:26:24;;;;;;;6.68;2.45;;;;;;;;;;10111928;29;20426;-75
2024/01/25 19:31:31;;;;;;;7.90;2.60;;;;;;;;;;10113319;29;20060;-74
2024/01/25 19:36:36;;;;;;;6.57;2.15;;;;;;;;;;10108289;29;20072;-75
2024/01/25 19:41:41;;;;;;;6.55;2.47;;;;;;;;;;10113131;29;20056;-75
2024/01/25 19:46:45;;;;;;;5.95;2.35;;;;;;;;;;10106677;29;20624;-74
2024/01/25 19:51:50;;;;;;;8.15;2.50;;;;;;;;;;10111587;29;20040;-74
2024/01/25 19:56:55;;;;;;;4.72;1.98;;;;;;;;;;10117230;29;20096;-74
2024/01/25 20:01:59;;;;;;;3.45;1.63;;;;;;;;;;10123483;29;20132;-74
2024/01/25 20:07:03;;;;;;;3.20;1.75;;;;;;;;;;10071493;29;20088;-74
2024/01/25 20:12:09;;;;;;;5.53;2.30;;;;;;;;;;10125291;29;20044;-75
2024/01/25 20:17:17;;;;;;;4.68;2.33;;;;;;;;;;10123689;29;20072;-75
2024/01/25 20:22:21;;;;;;;6.60;2.72;;;;;;;;;;10117270;29;20710;-75
2024/01/25 20:27:26;;;;;;;6.45;2.58;;;;;;;;;;10116102;29;20120;-75
2024/01/25 20:32:31;;;;;;;3.67;2.03;;;;;;;;;;10121862;29;20097;-74
2024/01/25 20:37:34;;;;;;;3.97;1.90;;;;;;;;;;10119867;29;20812;-75
2024/01/25 20:42:39;;;;;;;4.03;2.00;;;;;;;;;;10114914;29;20045;-75
2024/01/25 20:47:42;;;;;;;2.28;1.20;;;;;;;;;;10119071;29;20139;-75
2024/01/25 20:52:45;;;;;;;2.20;1.08;;;;;;;;;;10123603;29;20129;-75
2024/01/25 20:57:51;;;;;;;2.33;0.98;;;;;;;;;;10123687;29;20052;-74
2024/01/25 21:02:55;;;;;;;2.20;1.20;;;;;;;;;;10123951;29;20060;-74
2024/01/25 21:07:59;;;;;;;2.92;1.38;;;;;;;;;;10121136;29;20055;-75
2024/01/25 21:13:04;;;;;;;2.05;1.20;;;;;;;;;;10123158;29;20044;-75
2024/01/25 21:18:07;;;;;;;1.92;0.98;;;;;;;;;;10120720;29;20072;-74
2024/01/25 21:23:11;;;;;;;2.42;1.10;;;;;;;;;;10118494;29;20052;-75
2024/01/25 21:28:15;;;;;;;3.15;1.60;;;;;;;;;;10122529;29;20051;-75
2024/01/25 21:33:19;;;;;;;2.33;1.52;;;;;;;;;;10122313;29;20770;-75
2024/01/25 21:38:22;;;;;;;2.65;1.38;;;;;;;;;;10115698;29;20061;-75
2024/01/25 21:43:27;;;;;;;1.55;0.70;;;;;;;;;;10116103;29;20096;-75
2024/01/25 21:48:30;;;;;;;1.67;0.98;;;;;;;;;;10115057;29;20045;-75
2024/01/25 21:53:33;;;;;;;1.77;1.00;;;;;;;;;;10122280;29;20080;-75
2024/01/25 21:58:38;;;;;;;1.25;0.65;;;;;;;;;;10117649;29;20060;-76
2024/01/25 22:03:41;;;;;;;1.08;0.63;;;;;;;;;;10120063;29;20056;-75
2024/01/25 22:08:44;;;;;;;4.03;1.05;;;;;;;;;;10118984;29;20521;-75
2024/01/25 22:13:53;;;;;;;1.05;0.90;;;;;;;;;;10122320;29;20056;-75
2024/01/25 22:18:56;;;;;;;3.42;1.08;;;;;;;;;;10120476;29;20447;-75
2024/01/25 22:23:59;;;;;;;2.10;1.15;;;;;;;;;;10120477;29;20052;-74
2024/01/25 22:29:04;;;;;;;2.13;1.20;;;;;;;;;;10119570;29;20396;-75
2024/01/25 22:34:08;;;;;;;3.65;1.90;;;;;;;;;;10118082;29;20083;-75
2024/01/25 22:39:11;;;;;;;3.40;1.70;;;;;;;;;;10116995;29;20083;-75
2024/01/25 22:44:16;;;;;;;3.65;1.83;;;;;;;;;;10111745;29;20057;-75
2024/01/25 22:49:19;;;;;;;2.38;1.40;;;;;;;;;;10115713;29;20739;-75
2024/01/25 22:54:23;;;;;;;4.45;2.03;;;;;;;;;;10118703;29;20056;-75
2024/01/25 22:59:27;;;;;;;3.95;2.00;;;;;;;;;;10118974;29;20044;-75
2024/01/25 23:04:30;;;;;;;2.75;1.63;;;;;;;;;;10118090;29;20052;-75
2024/01/25 23:09:34;;;;;;;3.10;1.77;;;;;;;;;;10148250;23;20060;-76
2024/01/25 23:14:42;;;;;;;2.38;1.50;;;;;;;;;;10184013;28;20055;-76
2024/01/25 23:19:47;;;;;;;2.35;1.75;;;;;;;;;;10161157;29;20489;-77
2024/01/25 23:24:50;;;;;;;2.05;1.23;;;;;;;;;;10144797;29;20056;-76
2024/01/25 23:29:55;;;;;;;1.45;1.13;;;;;;;;;;10148549;29;20103;-76
2024/01/25 23:34:58;;;;;;;2.03;1.40;;;;;;;;;;10142138;29;20063;-76
2024/01/25 23:40:02;;;;;;;2.00;1.35;;;;;;;;;;10147753;29;20048;-76
2024/01/25 23:45:08;;;;;;;3.00;1.75;;;;;;;;;;10144399;29;20088;-76
2024/01/25 23:50:11;;;;;;;2.78;1.80;;;;;;;;;;10147374;29;20088;-76
2024/01/25 23:55:15;;;;;;;3.50;2.00;;;;;;;;;;10152154;29;20045;-76
